sensor_id;sensor_type;location;lat;lon;timestamp;pressure;altitude;pressure_sealevel;temperature;humidity
23172;BME280;11754;42.664;23.594;2023-02-16T00:00:44;96707.19;;;0.24;67.75
23172;BME280;11754;42.664;23.594;2023-02-16T00:03:17;96706.38;;;0.24;67.32
23172;BME280;11754;42.664;23.594;2023-02-16T00:05:43;96701.31;;;0.21;67.46
23172;BME280;11754;42.664;23.594;2023-02-16T00:08:08;96700.63;;;0.17;67.71
23172;BME280;11754;42.664;23.594;2023-02-16T00:10:35;96701.53;;;0.16;67.34
23172;BME280;11754;42.664;23.594;2023-02-16T00:13:02;96699.16;;;0.12;67.68
23172;BME280;11754;42.664;23.594;2023-02-16T00:15:54;96707.00;;;0.10;68.00
23172;BME280;11754;42.664;23.594;2023-02-16T00:18:20;96694.97;;;0.09;67.89
23172;BME280;11754;42.664;23.594;2023-02-16T00:20:48;96693.66;;;0.01;67.92
23172;BME280;11754;42.664;23.594;2023-02-16T00:23:13;96686.00;;;-0.03;68.26
23172;BME280;11754;42.664;23.594;2023-02-16T00:25:39;96696.31;;;-0.01;68.59
23172;BME280;11754;42.664;23.594;2023-02-16T00:28:11;96691.25;;;-0.04;68.49
23172;BME280;11754;42.664;23.594;2023-02-16T00:30:38;96695.69;;;-0.06;68.59
23172;BME280;11754;42.664;23.594;2023-02-16T00:33:13;96690.50;;;-0.06;68.53
23172;BME280;11754;42.664;23.594;2023-02-16T00:35:39;96687.25;;;-0.11;68.76
23172;BME280;11754;42.664;23.594;2023-02-16T00:38:04;96690.91;;;-0.15;68.93
23172;BME280;11754;42.664;23.594;2023-02-16T00:40:30;96691.97;;;-0.19;68.70
23172;BME280;11754;42.664;23.594;2023-02-16T00:42:56;96691.22;;;-0.21;68.59
23172;BME280;11754;42.664;23.594;2023-02-16T00:45:21;96667.03;;;-0.41;68.69
23172;BME280;11754;42.664;23.594;2023-02-16T00:47:50;96694.84;;;-0.26;68.27
23172;BME280;11754;42.664;23.594;2023-02-16T00:50:21;96697.44;;;-0.26;67.96
23172;BME280;11754;42.664;23.594;2023-02-16T00:52:47;96688.94;;;-0.29;67.76
23172;BME280;11754;42.664;23.594;2023-02-16T00:55:28;96688.41;;;-0.36;68.00
23172;BME280;11754;42.664;23.594;2023-02-16T00:58:14;96691.50;;;-0.46;67.73
23172;BME280;11754;42.664;23.594;2023-02-16T01:00:45;96687.69;;;-0.58;68.16
23172;BME280;11754;42.664;23.594;2023-02-16T01:03:18;96674.22;;;-0.66;67.54
23172;BME280;11754;42.664;23.594;2023-02-16T01:05:44;96694.97;;;-0.66;68.15
23172;BME280;11754;42.664;23.594;2023-02-16T01:08:16;96691.75;;;-0.71;68.55
23172;BME280;11754;42.664;23.594;2023-02-16T01:11:01;96677.28;;;-0.77;68.71
23172;BME280;11754;42.664;23.594;2023-02-16T01:13:45;96681.63;;;-0.78;69.20
23172;BME280;11754;42.664;23.594;2023-02-16T01:16:37;96675.63;;;-0.78;69.40
23172;BME280;11754;42.664;23.594;2023-02-16T01:19:04;96675.75;;;-0.81;69.04
23172;BME280;11754;42.664;23.594;2023-02-16T01:21:29;96674.06;;;-0.82;69.21
23172;BME280;11754;42.664;23.594;2023-02-16T01:23:54;96668.06;;;-0.83;69.29
23172;BME280;11754;42.664;23.594;2023-02-16T01:26:20;96673.59;;;-0.71;69.04
23172;BME280;11754;42.664;23.594;2023-02-16T01:28:46;96665.84;;;-0.71;69.02
23172;BME280;11754;42.664;23.594;2023-02-16T01:31:12;96657.28;;;-0.74;69.05
23172;BME280;11754;42.664;23.594;2023-02-16T01:33:39;96664.28;;;-0.76;69.24
23172;BME280;11754;42.664;23.594;2023-02-16T01:36:05;96659.50;;;-0.85;69.32
23172;BME280;11754;42.664;23.594;2023-02-16T01:38:31;96655.63;;;-0.95;69.45
23172;BME280;11754;42.664;23.594;2023-02-16T01:43:49;96658.47;;;-1.01;69.78
23172;BME280;11754;42.664;23.594;2023-02-16T01:46:37;96654.16;;;-1.01;70.11
23172;BME280;11754;42.664;23.594;2023-02-16T01:49:03;96659.25;;;-0.99;70.37
23172;BME280;11754;42.664;23.594;2023-02-16T01:51:47;96659.47;;;-1.04;70.61
23172;BME280;11754;42.664;23.594;2023-02-16T01:54:39;96649.88;;;-1.02;70.56
23172;BME280;11754;42.664;23.594;2023-02-16T01:57:26;96657.63;;;-1.02;70.61
23172;BME280;11754;42.664;23.594;2023-02-16T02:02:28;96654.91;;;-0.99;70.61
23172;BME280;11754;42.664;23.594;2023-02-16T02:04:59;96645.47;;;-1.00;70.74
23172;BME280;11754;42.664;23.594;2023-02-16T02:10:30;96639.47;;;-1.00;70.13
23172;BME280;11754;42.664;23.594;2023-02-16T02:15:31;96641.41;;;-1.05;69.89
23172;BME280;11754;42.664;23.594;2023-02-16T02:17:58;96648.28;;;-1.04;69.95
23172;BME280;11754;42.664;23.594;2023-02-16T02:20:50;96648.41;;;-1.07;70.33
23172;BME280;11754;42.664;23.594;2023-02-16T02:24:07;96648.41;;;-1.07;69.91
23172;BME280;11754;42.664;23.594;2023-02-16T02:34:59;96648.66;;;-1.13;69.39
23172;BME280;11754;42.664;23.594;2023-02-16T02:45:41;96641.34;;;-1.24;68.37
23172;BME280;11754;42.664;23.594;2023-02-16T02:48:08;96645.69;;;-1.25;68.49
23172;BME280;11754;42.664;23.594;2023-02-16T02:53:07;96638.72;;;-1.23;68.25
23172;BME280;11754;42.664;23.594;2023-02-16T02:55:35;96643.25;;;-1.28;68.24
23172;BME280;11754;42.664;23.594;2023-02-16T02:58:23;96644.41;;;-1.35;68.51
23172;BME280;11754;42.664;23.594;2023-02-16T03:01:10;96644.41;;;-1.35;68.94
23172;BME280;11754;42.664;23.594;2023-02-16T03:03:44;96643.66;;;-1.37;69.18
23172;BME280;11754;42.664;23.594;2023-02-16T03:06:27;96653.34;;;-1.42;69.44
23172;BME280;11754;42.664;23.594;2023-02-16T03:09:08;96644.22;;;-1.51;69.51
23172;BME280;11754;42.664;23.594;2023-02-16T03:11:36;96644.09;;;-1.48;69.62
23172;BME280;11754;42.664;23.594;2023-02-16T03:14:33;96647.66;;;-1.50;69.65
23172;BME280;11754;42.664;23.594;2023-02-16T03:17:05;96645.19;;;-1.53;69.86
23172;BME280;11754;42.664;23.594;2023-02-16T03:19:51;96646.84;;;-1.52;69.67
23172;BME280;11754;42.664;23.594;2023-02-16T03:22:36;96650.22;;;-1.50;69.75
23172;BME280;11754;42.664;23.594;2023-02-16T03:25:26;96631.44;;;-1.55;69.86
23172;BME280;11754;42.664;23.594;2023-02-16T03:28:12;96644.34;;;-1.54;69.82
23172;BME280;11754;42.664;23.594;2023-02-16T03:30:57;96646.84;;;-1.52;69.57
23172;BME280;11754;42.664;23.594;2023-02-16T03:33:24;96641.56;;;-1.49;69.91
23172;BME280;11754;42.664;23.594;2023-02-16T03:35:50;96626.56;;;-1.61;69.70
23172;BME280;11754;42.664;23.594;2023-02-16T03:38:16;96642.47;;;-1.50;69.38
23172;BME280;11754;42.664;23.594;2023-02-16T03:40:43;96637.94;;;-1.45;68.92
23172;BME280;11754;42.664;23.594;2023-02-16T03:43:09;96642.38;;;-1.49;68.97
23172;BME280;11754;42.664;23.594;2023-02-16T03:45:38;96639.75;;;-1.47;68.78
23172;BME280;11754;42.664;23.594;2023-02-16T03:48:05;96649.28;;;-1.48;68.59
23172;BME280;11754;42.664;23.594;2023-02-16T03:50:31;96646.72;;;-1.49;68.71
23172;BME280;11754;42.664;23.594;2023-02-16T03:52:57;96648.41;;;-1.48;68.52
23172;BME280;11754;42.664;23.594;2023-02-16T03:55:34;96644.94;;;-1.47;68.53
23172;BME280;11754;42.664;23.594;2023-02-16T03:58:00;96645.06;;;-1.50;68.33
23172;BME280;11754;42.664;23.594;2023-02-16T04:00:26;96639.03;;;-1.51;67.99
23172;BME280;11754;42.664;23.594;2023-02-16T04:02:52;96640.09;;;-1.55;67.59
23172;BME280;11754;42.664;23.594;2023-02-16T04:05:17;96651.91;;;-1.49;67.16
23172;BME280;11754;42.664;23.594;2023-02-16T04:07:43;96644.25;;;-1.52;66.77
23172;BME280;11754;42.664;23.594;2023-02-16T04:10:08;96638.78;;;-1.65;66.96
23172;BME280;11754;42.664;23.594;2023-02-16T04:12:33;96634.69;;;-1.71;67.13
23172;BME280;11754;42.664;23.594;2023-02-16T04:15:23;96636.50;;;-1.73;67.21
23172;BME280;11754;42.664;23.594;2023-02-16T04:17:49;96642.56;;;-1.74;67.15
23172;BME280;11754;42.664;23.594;2023-02-16T04:20:16;96646.31;;;-1.81;67.34
23172;BME280;11754;42.664;23.594;2023-02-16T04:22:43;96641.41;;;-1.87;67.29
23172;BME280;11754;42.664;23.594;2023-02-16T04:25:09;96644.75;;;-1.85;67.08
23172;BME280;11754;42.664;23.594;2023-02-16T04:27:34;96638.03;;;-1.89;67.08
23172;BME280;11754;42.664;23.594;2023-02-16T04:30:00;96638.13;;;-1.92;67.36
23172;BME280;11754;42.664;23.594;2023-02-16T04:32:26;96624.81;;;-2.03;67.64
23172;BME280;11754;42.664;23.594;2023-02-16T04:34:51;96640.31;;;-2.03;67.68
23172;BME280;11754;42.664;23.594;2023-02-16T04:37:17;96635.03;;;-2.00;67.71
23172;BME280;11754;42.664;23.594;2023-02-16T04:39:42;96635.88;;;-2.00;67.40
23172;BME280;11754;42.664;23.594;2023-02-16T04:42:07;96627.50;;;-2.06;67.64
23172;BME280;11754;42.664;23.594;2023-02-16T04:44:33;96635.25;;;-2.06;67.87
23172;BME280;11754;42.664;23.594;2023-02-16T04:46:58;96644.16;;;-2.13;68.31
23172;BME280;11754;42.664;23.594;2023-02-16T04:49:24;96640.81;;;-2.15;69.04
23172;BME280;11754;42.664;23.594;2023-02-16T04:51:49;96632.78;;;-2.09;68.80
23172;BME280;11754;42.664;23.594;2023-02-16T04:54:15;96636.47;;;-2.15;68.99
23172;BME280;11754;42.664;23.594;2023-02-16T04:56:44;96632.03;;;-2.11;68.79
23172;BME280;11754;42.664;23.594;2023-02-16T04:59:10;96643.81;;;-2.04;68.62
23172;BME280;11754;42.664;23.594;2023-02-16T05:01:36;96630.09;;;-2.06;68.22
23172;BME280;11754;42.664;23.594;2023-02-16T05:04:01;96637.81;;;-2.05;68.13
23172;BME280;11754;42.664;23.594;2023-02-16T05:06:27;96636.91;;;-2.04;68.17
23172;BME280;11754;42.664;23.594;2023-02-16T05:08:52;96645.25;;;-1.97;68.15
23172;BME280;11754;42.664;23.594;2023-02-16T05:11:18;96651.06;;;-1.92;67.94
23172;BME280;11754;42.664;23.594;2023-02-16T05:14:01;96647.59;;;-1.91;67.79
23172;BME280;11754;42.664;23.594;2023-02-16T05:16:45;96652.91;;;-1.94;67.62
23172;BME280;11754;42.664;23.594;2023-02-16T05:19:11;96652.09;;;-1.96;67.45
23172;BME280;11754;42.664;23.594;2023-02-16T05:21:37;96655.47;;;-1.94;67.45
23172;BME280;11754;42.664;23.594;2023-02-16T05:24:05;96658.06;;;-1.94;67.16
23172;BME280;11754;42.664;23.594;2023-02-16T05:26:32;96646.81;;;-1.93;66.97
23172;BME280;11754;42.664;23.594;2023-02-16T05:28:59;96656.00;;;-1.86;66.90
23172;BME280;11754;42.664;23.594;2023-02-16T05:31:25;96650.59;;;-1.80;66.66
23172;BME280;11754;42.664;23.594;2023-02-16T05:33:51;96654.78;;;-1.77;66.72
23172;BME280;11754;42.664;23.594;2023-02-16T05:36:17;96663.81;;;-1.65;66.63
23172;BME280;11754;42.664;23.594;2023-02-16T05:38:43;96668.19;;;-1.67;66.61
23172;BME280;11754;42.664;23.594;2023-02-16T05:41:08;96677.75;;;-1.70;67.33
23172;BME280;11754;42.664;23.594;2023-02-16T05:43:34;96663.13;;;-1.71;67.37
23172;BME280;11754;42.664;23.594;2023-02-16T05:45:59;96686.94;;;-1.62;67.45
23172;BME280;11754;42.664;23.594;2023-02-16T05:48:30;96674.09;;;-1.64;67.60
23172;BME280;11754;42.664;23.594;2023-02-16T05:50:55;96679.84;;;-1.57;67.42
23172;BME280;11754;42.664;23.594;2023-02-16T05:53:21;96682.97;;;-1.49;67.81
23172;BME280;11754;42.664;23.594;2023-02-16T05:55:46;96676.69;;;-1.43;67.91
23172;BME280;11754;42.664;23.594;2023-02-16T05:58:12;96677.81;;;-1.29;67.42
23172;BME280;11754;42.664;23.594;2023-02-16T06:00:38;96675.59;;;-1.17;67.17
23172;BME280;11754;42.664;23.594;2023-02-16T06:03:03;96680.25;;;-1.05;66.99
23172;BME280;11754;42.664;23.594;2023-02-16T06:05:28;96674.00;;;-1.01;66.50
23172;BME280;11754;42.664;23.594;2023-02-16T06:07:54;96688.91;;;-0.86;66.16
23172;BME280;11754;42.664;23.594;2023-02-16T06:10:19;96681.00;;;-0.83;65.55
23172;BME280;11754;42.664;23.594;2023-02-16T06:12:45;96677.25;;;-0.76;65.62
23172;BME280;11754;42.664;23.594;2023-02-16T06:15:10;96675.91;;;-0.65;64.69
23172;BME280;11754;42.664;23.594;2023-02-16T06:17:36;96672.28;;;-0.61;64.48
23172;BME280;11754;42.664;23.594;2023-02-16T06:20:02;96681.09;;;-0.65;64.21
23172;BME280;11754;42.664;23.594;2023-02-16T06:22:28;96683.50;;;-0.61;64.45
23172;BME280;11754;42.664;23.594;2023-02-16T06:24:53;96683.28;;;-0.56;64.69
23172;BME280;11754;42.664;23.594;2023-02-16T06:27:19;96688.53;;;-0.39;64.63
23172;BME280;11754;42.664;23.594;2023-02-16T06:29:44;96694.44;;;-0.35;64.57
23172;BME280;11754;42.664;23.594;2023-02-16T06:32:10;96702.44;;;-0.21;64.89
23172;BME280;11754;42.664;23.594;2023-02-16T06:34:35;96698.28;;;-0.06;64.25
23172;BME280;11754;42.664;23.594;2023-02-16T06:37:01;96699.56;;;0.21;64.47
23172;BME280;11754;42.664;23.594;2023-02-16T06:39:26;96702.69;;;0.47;64.22
23172;BME280;11754;42.664;23.594;2023-02-16T06:41:51;96705.97;;;0.68;64.11
23172;BME280;11754;42.664;23.594;2023-02-16T06:44:17;96710.03;;;0.91;63.36
23172;BME280;11754;42.664;23.594;2023-02-16T06:46:45;96720.09;;;1.14;63.10
23172;BME280;11754;42.664;23.594;2023-02-16T06:49:12;96722.81;;;1.29;62.46
23172;BME280;11754;42.664;23.594;2023-02-16T06:51:38;96721.28;;;1.42;61.74
23172;BME280;11754;42.664;23.594;2023-02-16T06:54:03;96719.31;;;1.63;60.93
23172;BME280;11754;42.664;23.594;2023-02-16T06:56:29;96713.44;;;1.91;60.47
23172;BME280;11754;42.664;23.594;2023-02-16T06:58:54;96721.44;;;2.20;59.20
23172;BME280;11754;42.664;23.594;2023-02-16T07:01:19;96719.69;;;2.36;58.75
23172;BME280;11754;42.664;23.594;2023-02-16T07:03:48;96711.75;;;2.53;58.27
23172;BME280;11754;42.664;23.594;2023-02-16T07:06:14;96711.41;;;2.59;58.30
23172;BME280;11754;42.664;23.594;2023-02-16T07:08:40;96709.88;;;2.71;58.16
23172;BME280;11754;42.664;23.594;2023-02-16T07:11:05;96709.97;;;3.00;57.80
23172;BME280;11754;42.664;23.594;2023-02-16T07:13:30;96706.53;;;3.28;57.00
23172;BME280;11754;42.664;23.594;2023-02-16T07:16:00;96699.78;;;3.54;56.51
23172;BME280;11754;42.664;23.594;2023-02-16T07:18:26;96704.53;;;3.76;55.68
23172;BME280;11754;42.664;23.594;2023-02-16T07:20:51;96693.25;;;3.90;55.09
23172;BME280;11754;42.664;23.594;2023-02-16T07:23:17;96700.56;;;4.12;54.73
23172;BME280;11754;42.664;23.594;2023-02-16T07:25:42;96701.09;;;4.17;54.53
23172;BME280;11754;42.664;23.594;2023-02-16T07:28:08;96695.69;;;4.20;54.09
23172;BME280;11754;42.664;23.594;2023-02-16T07:30:34;96688.78;;;4.46;53.74
23172;BME280;11754;42.664;23.594;2023-02-16T07:33:00;96687.59;;;4.64;53.34
23172;BME280;11754;42.664;23.594;2023-02-16T07:35:25;96683.22;;;4.65;53.43
23172;BME280;11754;42.664;23.594;2023-02-16T07:37:50;96696.06;;;4.95;52.22
23172;BME280;11754;42.664;23.594;2023-02-16T07:40:16;96688.84;;;4.98;52.93
23172;BME280;11754;42.664;23.594;2023-02-16T07:42:41;96677.59;;;4.71;53.59
23172;BME280;11754;42.664;23.594;2023-02-16T07:45:07;96672.19;;;4.99;53.42
23172;BME280;11754;42.664;23.594;2023-02-16T07:47:32;96671.59;;;5.09;53.09
23172;BME280;11754;42.664;23.594;2023-02-16T07:49:58;96679.44;;;5.47;52.67
23172;BME280;11754;42.664;23.594;2023-02-16T07:52:24;96676.19;;;5.69;52.00
23172;BME280;11754;42.664;23.594;2023-02-16T07:54:55;96671.13;;;6.04;51.62
23172;BME280;11754;42.664;23.594;2023-02-16T07:57:20;96673.59;;;6.18;51.57
23172;BME280;11754;42.664;23.594;2023-02-16T07:59:46;96672.84;;;6.53;50.83
23172;BME280;11754;42.664;23.594;2023-02-16T08:02:15;96670.41;;;6.74;50.35
23172;BME280;11754;42.664;23.594;2023-02-16T08:04:41;96662.44;;;7.11;49.47
23172;BME280;11754;42.664;23.594;2023-02-16T08:07:11;96670.59;;;7.41;49.49
23172;BME280;11754;42.664;23.594;2023-02-16T08:09:36;96668.94;;;7.74;48.67
23172;BME280;11754;42.664;23.594;2023-02-16T08:12:01;96663.03;;;8.27;47.26
23172;BME280;11754;42.664;23.594;2023-02-16T08:14:27;96673.91;;;8.11;47.63
23172;BME280;11754;42.664;23.594;2023-02-16T08:16:52;96655.66;;;8.64;45.84
23172;BME280;11754;42.664;23.594;2023-02-16T08:19:18;96667.91;;;9.07;46.04
23172;BME280;11754;42.664;23.594;2023-02-16T08:21:43;96654.28;;;9.44;44.51
23172;BME280;11754;42.664;23.594;2023-02-16T08:24:13;96656.13;;;9.83;44.04
23172;BME280;11754;42.664;23.594;2023-02-16T08:26:40;96668.41;;;10.04;43.49
23172;BME280;11754;42.664;23.594;2023-02-16T08:29:06;96666.88;;;10.42;42.52
23172;BME280;11754;42.664;23.594;2023-02-16T08:31:35;96663.31;;;10.91;41.38
23172;BME280;11754;42.664;23.594;2023-02-16T08:34:03;96663.94;;;11.42;39.73
23172;BME280;11754;42.664;23.594;2023-02-16T08:36:32;96662.94;;;11.52;39.74
23172;BME280;11754;42.664;23.594;2023-02-16T08:38:59;96657.78;;;11.61;39.57
23172;BME280;11754;42.664;23.594;2023-02-16T08:41:32;96659.50;;;11.99;39.39
23172;BME280;11754;42.664;23.594;2023-02-16T08:43:58;96656.75;;;12.82;37.40
23172;BME280;11754;42.664;23.594;2023-02-16T08:46:28;96655.97;;;13.43;36.18
23172;BME280;11754;42.664;23.594;2023-02-16T08:48:55;96650.72;;;13.51;35.93
23172;BME280;11754;42.664;23.594;2023-02-16T08:51:25;96661.34;;;14.11;34.76
23172;BME280;11754;42.664;23.594;2023-02-16T08:53:51;96654.72;;;14.15;35.09
23172;BME280;11754;42.664;23.594;2023-02-16T08:56:18;96658.59;;;14.29;34.71
23172;BME280;11754;42.664;23.594;2023-02-16T08:58:44;96654.28;;;14.79;33.53
23172;BME280;11754;42.664;23.594;2023-02-16T09:01:11;96657.28;;;15.17;32.71
23172;BME280;11754;42.664;23.594;2023-02-16T09:03:38;96658.59;;;14.96;33.15
23172;BME280;11754;42.664;23.594;2023-02-16T09:06:05;96647.16;;;15.69;32.00
23172;BME280;11754;42.664;23.594;2023-02-16T09:08:31;96646.22;;;15.93;31.67
23172;BME280;11754;42.664;23.594;2023-02-16T09:11:00;96647.66;;;16.51;30.84
23172;BME280;11754;42.664;23.594;2023-02-16T09:13:26;96646.44;;;16.93;30.17
23172;BME280;11754;42.664;23.594;2023-02-16T09:15:51;96644.38;;;17.41;29.32
23172;BME280;11754;42.664;23.594;2023-02-16T09:18:17;96633.47;;;18.04;28.70
23172;BME280;11754;42.664;23.594;2023-02-16T09:20:42;96632.31;;;18.93;27.34
23172;BME280;11754;42.664;23.594;2023-02-16T09:23:09;96633.38;;;19.70;26.22
23172;BME280;11754;42.664;23.594;2023-02-16T09:25:38;96624.69;;;20.99;24.46
23172;BME280;11754;42.664;23.594;2023-02-16T09:30:30;96628.19;;;24.34;21.01
23172;BME280;11754;42.664;23.594;2023-02-16T09:32:59;96604.03;;;25.06;20.09
23172;BME280;11754;42.664;23.594;2023-02-16T09:35:25;96601.09;;;24.29;20.58
23172;BME280;11754;42.664;23.594;2023-02-16T09:37:50;96603.50;;;26.68;19.26
23172;BME280;11754;42.664;23.594;2023-02-16T09:40:16;96584.78;;;28.74;17.41
23172;BME280;11754;42.664;23.594;2023-02-16T09:42:56;96590.00;;;30.47;15.75
23172;BME280;11754;42.664;23.594;2023-02-16T09:45:40;96573.38;;;32.03;14.46
23172;BME280;11754;42.664;23.594;2023-02-16T09:48:22;96575.28;;;31.36;14.35
23172;BME280;11754;42.664;23.594;2023-02-16T09:50:49;96580.31;;;30.71;14.48
23172;BME280;11754;42.664;23.594;2023-02-16T09:53:49;96566.00;;;32.73;13.26
23172;BME280;11754;42.664;23.594;2023-02-16T09:56:39;96568.75;;;33.62;13.02
23172;BME280;11754;42.664;23.594;2023-02-16T09:59:38;96558.34;;;34.65;12.30
23172;BME280;11754;42.664;23.594;2023-02-16T10:02:33;96548.00;;;37.67;10.37
23172;BME280;11754;42.664;23.594;2023-02-16T10:13:07;96532.94;;;42.28;8.22
23172;BME280;11754;42.664;23.594;2023-02-16T10:15:39;96534.34;;;41.55;8.42
23172;BME280;11754;42.664;23.594;2023-02-16T10:18:29;96525.59;;;41.65;7.94
23172;BME280;11754;42.664;23.594;2023-02-16T10:20:59;96532.00;;;42.72;7.59
23172;BME280;11754;42.664;23.594;2023-02-16T10:23:45;96515.66;;;43.08;7.60
23172;BME280;11754;42.664;23.594;2023-02-16T10:28:53;96513.22;;;43.62;7.18
23172;BME280;11754;42.664;23.594;2023-02-16T10:31:30;96508.91;;;43.21;7.17
23172;BME280;11754;42.664;23.594;2023-02-16T10:39:49;96504.44;;;45.65;6.58
23172;BME280;11754;42.664;23.594;2023-02-16T10:42:20;96504.25;;;46.69;6.14
23172;BME280;11754;42.664;23.594;2023-02-16T10:47:37;96497.47;;;46.43;6.36
23172;BME280;11754;42.664;23.594;2023-02-16T10:50:05;96491.91;;;46.70;5.82
23172;BME280;11754;42.664;23.594;2023-02-16T10:52:38;96489.13;;;44.77;6.30
23172;BME280;11754;42.664;23.594;2023-02-16T10:55:05;96482.59;;;45.67;5.98
23172;BME280;11754;42.664;23.594;2023-02-16T10:57:31;96480.53;;;47.12;5.84
23172;BME280;11754;42.664;23.594;2023-02-16T11:00:04;96473.41;;;48.37;5.08
23172;BME280;11754;42.664;23.594;2023-02-16T11:02:37;96459.28;;;48.16;5.07
23172;BME280;11754;42.664;23.594;2023-02-16T11:07:53;96463.28;;;48.77;5.20
23172;BME280;11754;42.664;23.594;2023-02-16T11:10:35;96460.84;;;49.56;4.64
23172;BME280;11754;42.664;23.594;2023-02-16T11:13:01;96450.50;;;50.24;4.88
23172;BME280;11754;42.664;23.594;2023-02-16T11:15:30;96455.59;;;50.94;4.25
23172;BME280;11754;42.664;23.594;2023-02-16T11:18:02;96447.50;;;51.03;4.01
23172;BME280;11754;42.664;23.594;2023-02-16T11:28:42;96432.00;;;50.45;4.52
23172;BME280;11754;42.664;23.594;2023-02-16T11:31:15;96428.00;;;50.53;4.17
23172;BME280;11754;42.664;23.594;2023-02-16T11:33:59;96426.41;;;50.34;4.45
23172;BME280;11754;42.664;23.594;2023-02-16T11:36:37;96419.72;;;51.27;3.77
23172;BME280;11754;42.664;23.594;2023-02-16T11:46:53;96402.66;;;52.11;3.97
23172;BME280;11754;42.664;23.594;2023-02-16T11:49:31;96405.00;;;51.67;3.89
23172;BME280;11754;42.664;23.594;2023-02-16T11:51:57;96393.06;;;52.46;3.94
23172;BME280;11754;42.664;23.594;2023-02-16T11:54:23;96389.38;;;52.11;4.01
23172;BME280;11754;42.664;23.594;2023-02-16T11:57:10;96391.84;;;52.47;3.57
23172;BME280;11754;42.664;23.594;2023-02-16T11:59:38;96388.09;;;53.26;3.60
23172;BME280;11754;42.664;23.594;2023-02-16T12:02:26;96381.41;;;53.43;3.10
23172;BME280;11754;42.664;23.594;2023-02-16T12:08:02;96382.22;;;50.70;4.04
23172;BME280;11754;42.664;23.594;2023-02-16T12:21:50;96354.81;;;52.83;3.09
23172;BME280;11754;42.664;23.594;2023-02-16T12:24:34;96346.09;;;53.35;3.03
23172;BME280;11754;42.664;23.594;2023-02-16T12:27:17;96339.78;;;54.21;2.71
23172;BME280;11754;42.664;23.594;2023-02-16T12:29:52;96349.31;;;54.71;2.64
23172;BME280;11754;42.664;23.594;2023-02-16T12:32:43;96338.88;;;54.68;2.82
23172;BME280;11754;42.664;23.594;2023-02-16T12:35:54;96341.34;;;54.66;2.80
23172;BME280;11754;42.664;23.594;2023-02-16T12:41:37;96325.50;;;52.46;3.52
23172;BME280;11754;42.664;23.594;2023-02-16T12:44:16;96319.13;;;52.42;3.33
23172;BME280;11754;42.664;23.594;2023-02-16T12:46:46;96317.22;;;51.94;3.25
23172;BME280;11754;42.664;23.594;2023-02-16T12:51:51;96317.97;;;53.32;3.01
23172;BME280;11754;42.664;23.594;2023-02-16T12:54:32;96317.50;;;53.60;2.83
23172;BME280;11754;42.664;23.594;2023-02-16T12:57:13;96300.59;;;53.60;2.88
23172;BME280;11754;42.664;23.594;2023-02-16T12:59:49;96306.09;;;53.67;3.10
23172;BME280;11754;42.664;23.594;2023-02-16T13:04:49;96295.56;;;52.29;3.07
23172;BME280;11754;42.664;23.594;2023-02-16T13:07:26;96296.66;;;52.39;3.23
23172;BME280;11754;42.664;23.594;2023-02-16T13:10:13;96293.94;;;52.62;3.10
23172;BME280;11754;42.664;23.594;2023-02-16T13:12:47;96288.56;;;51.65;3.39
23172;BME280;11754;42.664;23.594;2023-02-16T13:15:33;96275.88;;;51.42;3.57
23172;BME280;11754;42.664;23.594;2023-02-16T13:18:21;96291.91;;;51.46;3.47
23172;BME280;11754;42.664;23.594;2023-02-16T13:20:52;96276.22;;;51.93;3.01
23172;BME280;11754;42.664;23.594;2023-02-16T13:32:03;96265.75;;;48.94;4.28
23172;BME280;11754;42.664;23.594;2023-02-16T13:40:40;96257.19;;;48.41;4.20
23172;BME280;11754;42.664;23.594;2023-02-16T13:43:28;96254.66;;;48.07;4.35
23172;BME280;11754;42.664;23.594;2023-02-16T13:45:55;96244.34;;;48.32;4.25
23172;BME280;11754;42.664;23.594;2023-02-16T13:48:26;96253.28;;;48.56;4.29
23172;BME280;11754;42.664;23.594;2023-02-16T13:50:59;96250.31;;;47.58;4.37
23172;BME280;11754;42.664;23.594;2023-02-16T13:53:35;96254.72;;;46.73;4.92
23172;BME280;11754;42.664;23.594;2023-02-16T13:56:35;96254.13;;;45.93;5.14
23172;BME280;11754;42.664;23.594;2023-02-16T14:01:42;96248.16;;;46.92;4.83
23172;BME280;11754;42.664;23.594;2023-02-16T14:19:55;96250.03;;;44.10;5.68
23172;BME280;11754;42.664;23.594;2023-02-16T14:27:45;96239.78;;;42.53;6.42
23172;BME280;11754;42.664;23.594;2023-02-16T14:30:17;96202.75;;;42.05;6.06
23172;BME280;11754;42.664;23.594;2023-02-16T14:32:51;96231.72;;;42.47;6.14
23172;BME280;11754;42.664;23.594;2023-02-16T14:35:24;96229.84;;;42.23;6.50
23172;BME280;11754;42.664;23.594;2023-02-16T14:37:55;96233.56;;;42.28;6.69
23172;BME280;11754;42.664;23.594;2023-02-16T14:43:19;96237.88;;;39.61;7.50
23172;BME280;11754;42.664;23.594;2023-02-16T14:48:32;96224.44;;;39.80;7.47
23172;BME280;11754;42.664;23.594;2023-02-16T14:51:31;96238.25;;;39.51;7.55
23172;BME280;11754;42.664;23.594;2023-02-16T14:57:11;96234.81;;;37.47;8.27
23172;BME280;11754;42.664;23.594;2023-02-16T14:59:52;96224.47;;;37.44;8.69
23172;BME280;11754;42.664;23.594;2023-02-16T15:04:49;96227.06;;;36.69;8.52
23172;BME280;11754;42.664;23.594;2023-02-16T15:07:15;96242.06;;;36.41;8.87
23172;BME280;11754;42.664;23.594;2023-02-16T15:09:43;96230.56;;;36.16;9.21
23172;BME280;11754;42.664;23.594;2023-02-16T15:12:13;96235.31;;;35.88;9.44
23172;BME280;11754;42.664;23.594;2023-02-16T15:14:54;96231.38;;;35.17;9.56
23172;BME280;11754;42.664;23.594;2023-02-16T15:20:00;96242.13;;;30.54;11.78
23172;BME280;11754;42.664;23.594;2023-02-16T15:22:28;96239.72;;;28.28;13.18
23172;BME280;11754;42.664;23.594;2023-02-16T15:27:24;96251.16;;;25.25;15.54
23172;BME280;11754;42.664;23.594;2023-02-16T15:30:19;96251.66;;;24.04;16.66
23172;BME280;11754;42.664;23.594;2023-02-16T15:32:57;96255.50;;;22.88;17.65
23172;BME280;11754;42.664;23.594;2023-02-16T15:35:26;96261.91;;;22.00;18.39
23172;BME280;11754;42.664;23.594;2023-02-16T15:38:20;96254.47;;;21.32;19.16
23172;BME280;11754;42.664;23.594;2023-02-16T15:40:52;96264.03;;;20.56;19.78
23172;BME280;11754;42.664;23.594;2023-02-16T15:43:29;96267.75;;;19.82;20.73